createdAt,value
2023-05-01T00:01:09.137Z,0.90
2023-05-01T00:03:40.692Z,0.81
2023-05-01T00:06:11.043Z,0.85
2023-05-01T00:08:40.865Z,0.89
2023-05-01T00:11:12.805Z,0.95
2023-05-01T00:13:42.463Z,0.91
2023-05-01T00:16:13.050Z,0.88
2023-05-01T00:18:44.278Z,0.77
2023-05-01T00:21:14.525Z,0.69
2023-05-01T00:23:44.456Z,0.78
2023-05-01T00:26:14.613Z,0.84
2023-05-01T00:28:48.039Z,0.81
2023-05-01T00:31:18.646Z,0.86
2023-05-01T00:33:51.317Z,0.69
2023-05-01T00:36:21.812Z,0.61
2023-05-01T00:38:51.520Z,0.60
2023-05-01T00:41:22.395Z,0.53
2023-05-01T00:43:52.232Z,0.46
2023-05-01T00:46:23.379Z,0.49
2023-05-01T00:48:55.278Z,0.63
2023-05-01T00:51:27.650Z,0.69
2023-05-01T00:53:57.595Z,0.58
2023-05-01T00:56:28.322Z,0.38
2023-05-01T00:58:58.196Z,0.22
2023-05-01T01:01:29.077Z,0.06
2023-05-01T01:04:00.671Z,0.09
2023-05-01T01:06:35.071Z,0.08
2023-05-01T01:09:11.842Z,0.04
2023-05-01T01:11:47.042Z,-0.01
2023-05-01T01:14:19.970Z,-0.05
2023-05-01T01:16:56.649Z,-0.14
2023-05-01T01:19:50.949Z,-0.24
2023-05-01T01:22:24.107Z,-0.21
2023-05-01T01:25:16.209Z,-0.14
2023-05-01T01:28:13.350Z,-0.01
2023-05-01T01:30:57.075Z,-0.14
2023-05-01T01:33:43.502Z,-0.11
2023-05-01T01:36:17.447Z,-0.03
2023-05-01T01:38:48.452Z,-0.02
2023-05-01T01:41:21.578Z,0.04
2023-05-01T01:43:54.991Z,0.12
2023-05-01T01:46:25.599Z,0.17
2023-05-01T01:48:59.143Z,0.26
2023-05-01T01:51:29.758Z,0.33
2023-05-01T01:54:02.191Z,0.39
2023-05-01T01:56:33.430Z,0.47
2023-05-01T01:59:04.730Z,0.47
2023-05-01T02:01:35.939Z,0.50
2023-05-01T02:04:09.098Z,0.52
2023-05-01T02:06:39.932Z,0.52
2023-05-01T02:09:11.300Z,0.46
2023-05-01T02:11:42.567Z,0.36
2023-05-01T02:14:13.446Z,0.28
2023-05-01T02:16:44.175Z,0.48
2023-05-01T02:19:16.358Z,0.68
2023-05-01T02:21:47.183Z,0.73
2023-05-01T02:24:17.977Z,0.85
2023-05-01T02:26:51.171Z,0.93
2023-05-01T02:29:21.543Z,0.80
2023-05-01T02:31:51.256Z,1.06
2023-05-01T02:34:23.676Z,1.07
2023-05-01T02:36:53.590Z,1.12
2023-05-01T02:39:24.382Z,1.10
2023-05-01T02:41:55.403Z,1.13
2023-05-01T02:44:26.625Z,1.15
2023-05-01T02:46:57.954Z,1.12
2023-05-01T02:49:31.978Z,1.07
2023-05-01T02:52:02.620Z,1.05
2023-05-01T02:54:34.560Z,1.05
2023-05-01T02:57:05.723Z,1.03
2023-05-01T02:59:36.346Z,1.03
2023-05-01T03:02:06.516Z,0.95
2023-05-01T03:04:38.466Z,0.93
2023-05-01T03:07:09.803Z,0.92
2023-05-01T03:09:40.705Z,0.90
2023-05-01T03:12:10.553Z,0.88
2023-05-01T03:14:40.797Z,0.93
2023-05-01T03:17:11.455Z,0.89
2023-05-01T03:19:43.381Z,0.88
2023-05-01T03:22:13.214Z,0.79
2023-05-01T03:24:43.987Z,0.77
2023-05-01T03:27:13.933Z,0.79
2023-05-01T03:29:44.685Z,0.85
2023-05-01T03:32:15.352Z,0.87
2023-05-01T03:34:47.490Z,0.89
2023-05-01T03:37:18.397Z,0.88
2023-05-01T03:39:48.956Z,0.87
2023-05-01T03:42:37.412Z,0.80
2023-05-01T03:45:15.127Z,0.78
2023-05-01T03:47:45.640Z,0.85
2023-05-01T03:50:18.098Z,0.90
2023-05-01T03:52:50.384Z,0.91
2023-05-01T03:55:21.560Z,0.89
2023-05-01T03:57:53.275Z,0.88
2023-05-01T04:00:24.657Z,0.94
2023-05-01T04:02:54.934Z,1.00
2023-05-01T04:05:29.136Z,1.14
2023-05-01T04:08:04.722Z,1.34
2023-05-01T04:10:35.068Z,1.56
2023-05-01T04:13:07.874Z,1.78
2023-05-01T04:15:38.848Z,1.90
2023-05-01T04:18:08.788Z,2.10
2023-05-01T04:20:41.937Z,2.21
2023-05-01T04:23:13.384Z,2.31
2023-05-01T04:25:43.615Z,2.44
2023-05-01T04:28:17.263Z,2.47
2023-05-01T04:30:47.965Z,2.44
2023-05-01T04:33:18.148Z,2.48
2023-05-01T04:35:50.483Z,2.47
2023-05-01T04:38:20.592Z,2.53
2023-05-01T04:40:52.959Z,2.63
2023-05-01T04:43:22.919Z,2.66
2023-05-01T04:45:53.516Z,2.80
2023-05-01T04:48:23.933Z,2.91
2023-05-01T04:50:56.612Z,3.00
2023-05-01T04:53:28.981Z,3.14
2023-05-01T04:55:59.641Z,3.31
2023-05-01T04:58:30.412Z,3.52
2023-05-01T05:01:05.737Z,3.73
2023-05-01T05:03:36.021Z,4.06
2023-05-01T05:06:08.053Z,4.21
2023-05-01T05:08:38.654Z,4.51
2023-05-01T05:11:13.732Z,4.74
2023-05-01T05:14:04.398Z,4.78
2023-05-01T05:16:36.008Z,4.84
2023-05-01T05:19:06.410Z,4.90
2023-05-01T05:21:42.494Z,5.11
2023-05-01T05:24:12.487Z,5.22
2023-05-01T05:26:43.214Z,5.33
2023-05-01T05:29:13.932Z,5.37
2023-05-01T05:31:44.317Z,5.56
2023-05-01T05:34:14.369Z,5.65
2023-05-01T05:36:46.219Z,5.95
2023-05-01T05:39:17.621Z,6.53
2023-05-01T05:41:49.580Z,7.01
2023-05-01T05:44:20.126Z,6.83
2023-05-01T05:46:50.689Z,7.01
2023-05-01T05:49:30.274Z,7.22
2023-05-01T05:52:02.232Z,7.32
2023-05-01T05:54:32.500Z,7.59
2023-05-01T05:57:03.590Z,7.73
2023-05-01T05:59:34.965Z,8.08
2023-05-01T06:02:05.493Z,8.44
2023-05-01T06:04:35.834Z,8.76
2023-05-01T06:07:08.464Z,8.99
2023-05-01T06:09:38.531Z,9.28
2023-05-01T06:12:09.669Z,9.07
2023-05-01T06:14:41.398Z,9.46
2023-05-01T06:17:12.566Z,9.30
2023-05-01T06:19:42.385Z,9.53
2023-05-01T06:22:15.702Z,9.91
2023-05-01T06:25:01.547Z,9.83
2023-05-01T06:27:33.760Z,9.74
2023-05-01T06:32:57.457Z,9.49
2023-05-01T06:35:43.173Z,9.32
2023-05-01T06:38:14.963Z,9.40
2023-05-01T06:40:47.432Z,9.45
2023-05-01T06:43:31.181Z,9.60
2023-05-01T06:46:04.222Z,9.53
2023-05-01T06:48:43.540Z,9.77
2023-05-01T06:51:33.265Z,9.59
2023-05-01T06:54:06.890Z,9.80
2023-05-01T06:56:49.504Z,9.91
2023-05-01T06:59:28.156Z,10.00
2023-05-01T07:02:10.423Z,10.14
2023-05-01T07:05:08.141Z,10.18
2023-05-01T07:08:00.867Z,10.07
2023-05-01T07:10:53.330Z,10.17
2023-05-01T07:13:26.189Z,10.15
2023-05-01T07:16:00.503Z,10.24
2023-05-01T07:18:36.508Z,10.27
2023-05-01T07:21:07.118Z,10.30
2023-05-01T07:23:38.817Z,10.17
2023-05-01T07:26:12.735Z,10.32
2023-05-01T07:28:43.342Z,10.27
2023-05-01T07:31:13.799Z,10.28
2023-05-01T07:33:44.114Z,10.21
2023-05-01T07:36:14.534Z,10.44
2023-05-01T07:38:45.574Z,10.55
2023-05-01T07:41:17.707Z,10.40
2023-05-01T07:43:47.805Z,10.60
2023-05-01T07:46:19.117Z,10.57
2023-05-01T07:48:49.894Z,10.57
2023-05-01T07:51:22.312Z,10.85
2023-05-01T07:53:55.798Z,11.08
2023-05-01T07:56:28.087Z,11.23
2023-05-01T07:59:00.236Z,10.96
2023-05-01T08:01:31.348Z,11.41
2023-05-01T08:04:03.959Z,11.46
2023-05-01T08:06:34.846Z,11.10
2023-05-01T08:09:06.065Z,11.31
2023-05-01T08:11:38.055Z,11.18
2023-05-01T08:14:09.734Z,11.32
2023-05-01T08:16:40.200Z,11.64
2023-05-01T08:19:11.082Z,11.79
2023-05-01T08:21:42.174Z,11.84
2023-05-01T08:24:15.826Z,11.65
2023-05-01T08:26:50.004Z,11.73
2023-05-01T08:29:21.535Z,12.43
2023-05-01T08:31:53.894Z,12.25
2023-05-01T08:34:24.917Z,12.27
2023-05-01T08:36:55.366Z,12.22
2023-05-01T08:39:25.349Z,11.92
2023-05-01T08:41:58.905Z,12.15
2023-05-01T08:44:30.161Z,11.91
2023-05-01T08:47:08.595Z,12.09
2023-05-01T08:49:39.645Z,12.41
2023-05-01T08:52:10.283Z,12.26
2023-05-01T08:54:41.454Z,12.67
2023-05-01T08:57:14.379Z,13.25
2023-05-01T08:59:46.648Z,12.72
2023-05-01T09:02:17.820Z,13.09
2023-05-01T09:04:48.822Z,12.80
2023-05-01T09:07:19.349Z,13.19
2023-05-01T09:09:49.476Z,13.15
2023-05-01T09:12:26.461Z,12.58
2023-05-01T09:14:56.968Z,13.33
2023-05-01T09:17:46.630Z,13.57
2023-05-01T09:20:20.813Z,13.87
2023-05-01T09:22:52.131Z,14.21
2023-05-01T09:25:21.952Z,14.42
2023-05-01T09:27:54.098Z,14.33
2023-05-01T09:30:34.146Z,14.26
2023-05-01T09:33:08.128Z,14.00
2023-05-01T09:35:50.553Z,14.07
2023-05-01T09:38:22.146Z,14.54
2023-05-01T09:40:52.450Z,13.87
2023-05-01T09:43:31.894Z,14.28
2023-05-01T09:46:13.261Z,14.42
2023-05-01T09:48:56.739Z,13.98
2023-05-01T09:51:27.360Z,14.01
2023-05-01T09:53:58.367Z,14.38
2023-05-01T09:56:28.465Z,14.69
2023-05-01T09:59:00.642Z,14.73
2023-05-01T10:01:48.823Z,14.51
2023-05-01T10:04:19.815Z,14.06
2023-05-01T10:06:49.928Z,14.42
2023-05-01T10:09:28.764Z,14.50
2023-05-01T10:12:07.966Z,15.02
2023-05-01T10:14:55.628Z,14.85
2023-05-01T10:17:26.447Z,14.94
2023-05-01T10:19:57.183Z,14.59
2023-05-01T10:22:28.801Z,14.48
2023-05-01T10:24:59.866Z,14.93
2023-05-01T10:27:29.966Z,14.70
2023-05-01T10:30:05.335Z,14.39
2023-05-01T10:32:35.699Z,14.62
2023-05-01T10:35:09.485Z,14.65
2023-05-01T10:37:42.464Z,14.71
2023-05-01T10:40:31.164Z,14.88
2023-05-01T10:43:28.949Z,15.10
2023-05-01T10:46:15.845Z,16.07
2023-05-01T10:48:57.006Z,16.36
2023-05-01T10:51:28.456Z,15.92
2023-05-01T10:54:19.671Z,15.55
2023-05-01T10:56:50.142Z,15.20
2023-05-01T10:59:20.286Z,15.30
2023-05-01T11:01:52.183Z,14.97
2023-05-01T11:04:56.202Z,15.07
2023-05-01T11:07:28.706Z,15.02
2023-05-01T11:09:59.275Z,15.15
2023-05-01T11:12:47.930Z,14.70
2023-05-01T11:15:27.388Z,15.11
2023-05-01T11:17:58.036Z,15.11
2023-05-01T11:20:46.463Z,15.18
2023-05-01T11:23:22.078Z,15.02
2023-05-01T11:25:52.099Z,14.90
2023-05-01T11:28:25.699Z,15.05
2023-05-01T11:30:55.840Z,15.22
2023-05-01T11:33:28.815Z,14.88
2023-05-01T11:36:00.103Z,15.14
2023-05-01T11:38:32.147Z,15.16
2023-05-01T11:41:04.373Z,15.16
2023-05-01T11:43:34.571Z,15.20
2023-05-01T11:46:04.674Z,15.14
2023-05-01T11:48:35.404Z,15.19
2023-05-01T11:51:13.986Z,15.28
2023-05-01T11:53:45.937Z,15.39
2023-05-01T11:58:55.739Z,15.63
2023-05-01T12:01:35.132Z,15.61
2023-05-01T12:04:05.972Z,15.78
2023-05-01T12:06:44.111Z,16.02
2023-05-01T12:09:18.180Z,16.04
2023-05-01T12:11:52.727Z,15.66
2023-05-01T12:14:24.776Z,15.82
2023-05-01T12:16:54.722Z,15.93
2023-05-01T12:19:25.469Z,16.13
2023-05-01T12:22:06.858Z,16.08
2023-05-01T12:24:39.173Z,16.22
2023-05-01T12:27:11.676Z,16.57
2023-05-01T12:29:42.675Z,17.14
2023-05-01T12:32:12.729Z,17.14
2023-05-01T12:34:43.405Z,17.55
2023-05-01T12:37:13.283Z,17.48
2023-05-01T12:39:46.198Z,16.95
2023-05-01T12:42:17.205Z,16.91
2023-05-01T12:44:47.626Z,17.15
2023-05-01T12:47:17.797Z,16.88
2023-05-01T12:49:48.205Z,16.95
2023-05-01T12:52:28.105Z,17.28
2023-05-01T12:55:06.030Z,17.10
2023-05-01T12:57:37.125Z,17.53
2023-05-01T13:00:09.904Z,17.45
2023-05-01T13:02:41.573Z,17.66
2023-05-01T13:05:17.644Z,17.92
2023-05-01T13:07:51.654Z,17.82
2023-05-01T13:10:35.589Z,17.93
2023-05-01T13:13:05.975Z,17.80
2023-05-01T13:15:36.863Z,17.61
2023-05-01T13:18:07.201Z,17.33
2023-05-01T13:20:43.518Z,17.52
2023-05-01T13:23:15.482Z,17.94
2023-05-01T13:25:47.951Z,18.22
2023-05-01T13:28:22.233Z,18.36
2023-05-01T13:30:52.624Z,19.01
2023-05-01T13:33:22.701Z,19.94
2023-05-01T13:35:53.065Z,19.85
2023-05-01T13:38:24.997Z,20.21
2023-05-01T13:40:59.201Z,20.43
2023-05-01T13:43:29.583Z,20.79
2023-05-01T13:46:00.886Z,20.68
2023-05-01T13:48:32.408Z,20.36
2023-05-01T13:51:02.772Z,19.86
2023-05-01T13:53:32.841Z,19.41
2023-05-01T13:56:05.223Z,19.24
2023-05-01T13:58:35.290Z,19.34
2023-05-01T14:01:16.809Z,19.50
2023-05-01T14:03:47.133Z,19.59
2023-05-01T14:06:19.274Z,20.32
2023-05-01T14:08:54.687Z,20.20
2023-05-01T14:11:27.184Z,19.99
2023-05-01T14:14:03.858Z,19.93
2023-05-01T14:16:34.496Z,20.01
2023-05-01T14:19:06.591Z,20.02
2023-05-01T14:21:42.217Z,19.92
2023-05-01T14:24:12.093Z,20.02
2023-05-01T14:26:45.206Z,20.19
2023-05-01T14:29:20.692Z,20.55
2023-05-01T14:31:51.777Z,20.08
2023-05-01T14:34:22.058Z,19.91
2023-05-01T14:36:52.552Z,18.52
2023-05-01T14:39:22.512Z,17.62
2023-05-01T14:41:56.331Z,17.21
2023-05-01T14:44:28.312Z,17.27
2023-05-01T14:46:59.292Z,17.05
2023-05-01T14:49:29.981Z,16.83
2023-05-01T14:52:00.345Z,16.89
2023-05-01T14:54:30.431Z,16.74
2023-05-01T14:57:04.202Z,16.68
2023-05-01T14:59:34.050Z,16.69
2023-05-01T15:02:04.479Z,16.62
2023-05-01T15:04:36.380Z,16.80
2023-05-01T15:07:06.886Z,16.69
2023-05-01T15:09:36.631Z,16.62
2023-05-01T15:12:08.170Z,16.59
2023-05-01T15:14:38.045Z,16.44
2023-05-01T15:17:08.506Z,16.54
2023-05-01T15:19:38.326Z,16.57
2023-05-01T15:22:08.634Z,16.50
2023-05-01T15:24:39.528Z,16.65
2023-05-01T15:27:11.337Z,16.56
2023-05-01T15:29:41.251Z,16.52
2023-05-01T15:32:12.875Z,16.38
2023-05-01T15:34:43.096Z,16.49
2023-05-01T15:37:13.557Z,16.46
2023-05-01T15:39:43.682Z,16.53
2023-05-01T15:42:15.528Z,16.52
2023-05-01T15:44:45.409Z,16.58
2023-05-01T15:47:16.261Z,16.50
2023-05-01T15:49:46.594Z,16.47
2023-05-01T15:52:17.140Z,16.41
2023-05-01T15:54:47.782Z,16.31
2023-05-01T15:57:22.567Z,16.25
2023-05-01T15:59:56.207Z,16.24
2023-05-01T16:02:27.419Z,16.21
2023-05-01T16:04:57.696Z,16.28
2023-05-01T16:07:30.385Z,16.25
2023-05-01T16:10:00.578Z,16.14
2023-05-01T16:12:32.860Z,16.15
2023-05-01T16:15:03.731Z,16.14
2023-05-01T16:17:34.394Z,16.26
2023-05-01T16:20:04.659Z,16.36
2023-05-01T16:22:35.198Z,16.40
2023-05-01T16:25:05.316Z,16.30
2023-05-01T16:27:41.618Z,16.27
2023-05-01T16:30:12.447Z,16.19
2023-05-01T16:32:42.700Z,15.98
2023-05-01T16:35:12.714Z,15.94
2023-05-01T16:37:42.928Z,15.81
2023-05-01T16:40:17.197Z,15.72
2023-05-01T16:42:53.749Z,15.59
2023-05-01T16:45:23.776Z,15.50
2023-05-01T16:47:56.738Z,15.34
2023-05-01T16:50:28.107Z,15.28
2023-05-01T16:53:00.115Z,15.17
2023-05-01T16:55:30.601Z,14.99
2023-05-01T16:58:02.685Z,14.87
2023-05-01T17:00:32.613Z,14.80
2023-05-01T17:03:03.269Z,14.65
2023-05-01T17:05:33.534Z,14.59
2023-05-01T17:08:04.289Z,14.53
2023-05-01T17:10:34.574Z,14.43
2023-05-01T17:13:06.866Z,14.39
2023-05-01T17:15:36.655Z,14.31
2023-05-01T17:18:08.039Z,14.29
2023-05-01T17:20:38.433Z,14.21
2023-05-01T17:23:11.005Z,14.16
2023-05-01T17:25:42.196Z,14.09
2023-05-01T17:28:25.565Z,14.04
2023-05-01T17:30:56.673Z,13.94
2023-05-01T17:33:27.484Z,13.88
2023-05-01T17:35:59.919Z,13.83
2023-05-01T17:38:30.514Z,13.78
2023-05-01T17:41:00.378Z,13.62
2023-05-01T17:43:32.552Z,13.54
2023-05-01T17:46:03.125Z,13.45
2023-05-01T17:48:34.376Z,13.40
2023-05-01T17:51:04.401Z,13.26
2023-05-01T17:53:34.804Z,13.20
2023-05-01T17:56:07.994Z,13.12
2023-05-01T17:58:43.302Z,13.05
2023-05-01T18:01:13.578Z,12.88
2023-05-01T18:03:45.575Z,12.75
2023-05-01T18:06:15.995Z,12.56
2023-05-01T18:08:46.667Z,12.31
2023-05-01T18:11:16.782Z,12.19
2023-05-01T18:13:49.026Z,12.00
2023-05-01T18:16:19.050Z,11.82
2023-05-01T18:18:49.696Z,11.65
2023-05-01T18:21:20.157Z,11.57
2023-05-01T18:23:51.436Z,11.31
2023-05-01T18:26:21.442Z,11.19
2023-05-01T18:28:53.974Z,11.12
2023-05-01T18:31:24.143Z,11.07
2023-05-01T18:33:55.024Z,11.03
2023-05-01T18:36:25.215Z,10.99
2023-05-01T18:38:56.014Z,10.94
2023-05-01T18:41:26.902Z,10.95
2023-05-01T18:44:01.555Z,10.87
2023-05-01T18:46:31.722Z,10.78
2023-05-01T18:49:02.110Z,10.71
2023-05-01T18:51:32.029Z,10.54
2023-05-01T18:54:05.025Z,10.42
2023-05-01T18:56:38.191Z,10.34
2023-05-01T18:59:11.682Z,10.34
2023-05-01T19:01:42.701Z,10.31
2023-05-01T19:04:13.264Z,10.25
2023-05-01T19:06:44.391Z,10.14
2023-05-01T19:09:15.177Z,9.91
2023-05-01T19:11:44.972Z,9.81
2023-05-01T19:14:22.464Z,9.80
2023-05-01T19:16:52.690Z,9.78
2023-05-01T19:19:25.450Z,9.81
2023-05-01T19:21:59.424Z,9.65
2023-05-01T19:24:30.562Z,9.14
2023-05-01T19:27:03.015Z,8.95
2023-05-01T19:29:38.039Z,8.83
2023-05-01T19:32:10.611Z,8.86
2023-05-01T19:34:41.525Z,8.80
2023-05-01T19:37:15.138Z,8.84
2023-05-01T19:39:49.048Z,8.88
2023-05-01T19:42:21.895Z,8.83
2023-05-01T19:44:54.467Z,8.75
2023-05-01T19:47:25.265Z,8.54
2023-05-01T19:49:58.262Z,8.45
2023-05-01T19:52:29.498Z,8.24
2023-05-01T19:55:04.147Z,8.07
2023-05-01T19:57:35.991Z,8.04
2023-05-01T20:00:12.364Z,7.90
2023-05-01T20:02:42.715Z,7.83
2023-05-01T20:05:15.663Z,7.91
2023-05-01T20:07:49.425Z,7.81
2023-05-01T20:10:21.352Z,7.85
2023-05-01T20:12:51.294Z,7.69
2023-05-01T20:15:25.094Z,7.65
2023-05-01T20:17:54.910Z,7.50
2023-05-01T20:20:25.425Z,7.50
2023-05-01T20:23:13.761Z,7.40
2023-05-01T20:25:47.143Z,7.29
2023-05-01T20:28:17.304Z,7.17
2023-05-01T20:30:49.572Z,7.13
2023-05-01T20:33:19.919Z,7.10
2023-05-01T20:35:51.471Z,7.10
2023-05-01T20:38:22.072Z,7.01
2023-05-01T20:40:52.974Z,6.96
2023-05-01T20:43:23.310Z,7.07
2023-05-01T20:45:56.262Z,7.16
2023-05-01T20:48:28.611Z,7.20
2023-05-01T20:51:01.230Z,7.30
2023-05-01T20:53:31.407Z,7.36
2023-05-01T20:56:02.721Z,7.42
2023-05-01T20:58:42.684Z,7.38
2023-05-01T21:01:30.698Z,7.40
2023-05-01T21:04:01.961Z,7.37
2023-05-01T21:06:33.562Z,7.40
2023-05-01T21:09:04.296Z,7.36
2023-05-01T21:11:35.192Z,7.29
2023-05-01T21:14:05.392Z,7.11
2023-05-01T21:16:37.823Z,7.21
2023-05-01T21:19:08.001Z,7.26
2023-05-01T21:21:38.211Z,6.95
2023-05-01T21:24:09.139Z,6.85
2023-05-01T21:26:39.742Z,6.82
2023-05-01T21:29:10.225Z,6.59
2023-05-01T21:31:42.151Z,6.91
2023-05-01T21:34:12.114Z,6.86
2023-05-01T21:36:45.200Z,6.79
2023-05-01T21:39:16.007Z,6.85
2023-05-01T21:41:49.375Z,6.90
2023-05-01T21:44:19.344Z,6.72
2023-05-01T21:46:51.456Z,6.57
2023-05-01T21:49:23.314Z,6.50
2023-05-01T21:51:53.898Z,6.46
2023-05-01T21:54:23.917Z,6.40
2023-05-01T21:56:54.665Z,6.43
2023-05-01T21:59:24.483Z,6.30
2023-05-01T22:01:56.204Z,6.24
2023-05-01T22:04:25.966Z,6.28
2023-05-01T22:06:58.434Z,6.28
2023-05-01T22:09:28.233Z,6.28
2023-05-01T22:11:59.378Z,6.21
2023-05-01T22:14:43.790Z,6.20
2023-05-01T22:17:24.422Z,6.24
2023-05-01T22:19:54.838Z,6.24
2023-05-01T22:22:25.282Z,6.26
2023-05-01T22:24:55.623Z,6.24
2023-05-01T22:27:26.012Z,6.21
2023-05-01T22:29:55.962Z,6.12
2023-05-01T22:32:27.721Z,5.99
2023-05-01T22:34:57.478Z,5.92
2023-05-01T22:37:27.655Z,5.87
2023-05-01T22:39:57.569Z,5.78
2023-05-01T22:42:28.176Z,5.70
2023-05-01T22:44:57.957Z,5.66
2023-05-01T22:47:29.692Z,5.60
2023-05-01T22:49:59.544Z,5.55
2023-05-01T22:52:29.749Z,5.52
2023-05-01T22:54:59.518Z,5.49
2023-05-01T22:57:29.738Z,5.48
2023-05-01T22:59:59.757Z,5.44
2023-05-01T23:02:31.796Z,5.49
2023-05-01T23:05:01.844Z,5.48
2023-05-01T23:07:31.949Z,5.46
2023-05-01T23:10:02.489Z,5.52
2023-05-01T23:12:33.028Z,5.50
2023-05-01T23:15:02.704Z,5.49
2023-05-01T23:17:36.375Z,5.49
2023-05-01T23:20:07.579Z,5.48
2023-05-01T23:22:38.465Z,5.45
2023-05-01T23:25:14.258Z,5.36
2023-05-01T23:27:53.064Z,5.31
2023-05-01T23:30:23.124Z,5.27
2023-05-01T23:32:56.543Z,4.97
2023-05-01T23:35:26.518Z,5.18
2023-05-01T23:37:56.652Z,5.11
2023-05-01T23:40:26.565Z,5.14
2023-05-01T23:42:56.699Z,5.22
2023-05-01T23:45:26.353Z,5.33
2023-05-01T23:47:57.953Z,5.29
2023-05-01T23:50:27.817Z,5.15
2023-05-01T23:52:57.953Z,5.10
2023-05-01T23:55:27.869Z,5.06
2023-05-01T23:57:58.673Z,5.00
